createdAt,value
2018-09-11T00:01:34.980Z,101797.00
2018-09-11T00:03:37.969Z,101800.00
2018-09-11T00:05:40.928Z,101802.00
2018-09-11T00:07:44.054Z,101805.00
2018-09-11T00:09:47.061Z,101809.00
2018-09-11T00:11:51.514Z,101811.00
2018-09-11T00:13:54.550Z,101813.00
2018-09-11T00:15:57.571Z,101819.00
2018-09-11T00:18:00.577Z,101821.00
2018-09-11T00:20:03.762Z,101822.00
2018-09-11T00:22:06.826Z,101818.00
2018-09-11T00:24:09.934Z,101815.00
2018-09-11T00:26:12.932Z,101813.00
2018-09-11T00:28:15.940Z,101822.00
2018-09-11T00:30:20.806Z,101824.00
2018-09-11T00:32:23.787Z,101828.00
2018-09-11T00:34:26.764Z,101833.00
2018-09-11T00:36:29.825Z,101829.00
2018-09-11T00:38:32.833Z,101833.00
2018-09-11T00:40:35.807Z,101823.00
2018-09-11T00:42:38.809Z,101823.00
2018-09-11T00:44:41.819Z,101815.00
2018-09-11T00:46:44.841Z,101816.00
2018-09-11T00:48:47.850Z,101815.00
2018-09-11T00:50:51.535Z,101813.00
2018-09-11T00:52:54.598Z,101810.00
2018-09-11T00:54:57.970Z,101811.00
2018-09-11T00:57:00.983Z,101811.00
2018-09-11T00:59:04.366Z,101809.00
2018-09-11T01:01:07.379Z,101806.00
2018-09-11T01:03:10.371Z,101811.00
2018-09-11T01:05:13.401Z,101805.00
2018-09-11T01:07:16.492Z,101803.00
2018-09-11T01:09:20.824Z,101802.00
2018-09-11T01:11:23.836Z,101800.00
2018-09-11T01:13:26.837Z,101802.00
2018-09-11T01:15:29.857Z,101800.00
2018-09-11T01:17:32.885Z,101801.00
2018-09-11T01:19:35.863Z,101799.00
2018-09-11T01:21:38.842Z,101800.00
2018-09-11T01:23:41.845Z,101800.00
2018-09-11T01:25:44.815Z,101804.00
2018-09-11T01:27:47.827Z,101800.00
2018-09-11T01:29:52.707Z,101802.00
2018-09-11T01:31:55.714Z,101802.00
2018-09-11T01:33:58.849Z,101805.00
2018-09-11T01:36:01.887Z,101799.00
2018-09-11T01:38:04.975Z,101797.00
2018-09-11T01:40:07.993Z,101796.00
2018-09-11T01:42:10.985Z,101794.00
2018-09-11T01:44:14.014Z,101797.00
2018-09-11T01:46:17.043Z,101797.00
2018-09-11T01:48:21.545Z,101804.00
2018-09-11T01:50:24.517Z,101803.00
2018-09-11T01:52:27.501Z,101800.00
2018-09-11T01:54:30.516Z,101793.00
2018-09-11T01:56:33.521Z,101798.00
2018-09-11T01:58:36.545Z,101802.00
2018-09-11T02:00:39.965Z,101794.00
2018-09-11T02:02:42.924Z,101789.00
2018-09-11T02:04:45.947Z,101787.00
2018-09-11T02:06:50.227Z,101788.00
2018-09-11T02:08:53.307Z,101788.00
2018-09-11T02:10:56.378Z,101781.00
2018-09-11T02:13:00.188Z,101784.00
2018-09-11T02:15:03.403Z,101782.00
2018-09-11T02:17:06.378Z,101782.00
2018-09-11T02:19:09.386Z,101774.00
2018-09-11T02:21:12.379Z,101771.00
2018-09-11T02:23:15.348Z,101776.00
2018-09-11T02:25:19.687Z,101777.00
2018-09-11T02:27:22.641Z,101785.00
2018-09-11T02:29:25.664Z,101786.00
2018-09-11T02:31:28.634Z,101785.00
2018-09-11T02:33:31.589Z,101790.00
2018-09-11T02:35:34.662Z,101781.00
2018-09-11T02:37:37.692Z,101792.00
2018-09-11T02:39:40.649Z,101787.00
2018-09-11T02:41:43.680Z,101788.00
2018-09-11T02:43:46.735Z,101792.00
2018-09-11T02:45:51.306Z,101793.00
2018-09-11T02:47:54.857Z,101789.00
2018-09-11T02:49:57.842Z,101791.00
2018-09-11T02:52:00.875Z,101788.00
2018-09-11T02:54:04.137Z,101786.00
2018-09-11T02:56:07.086Z,101784.00
2018-09-11T02:58:10.139Z,101782.00
2018-09-11T03:00:13.347Z,101781.00
2018-09-11T03:02:16.443Z,101785.00
2018-09-11T03:04:21.150Z,101780.00
2018-09-11T03:06:24.193Z,101781.00
2018-09-11T03:08:27.214Z,101777.00
2018-09-11T03:10:30.189Z,101786.00
2018-09-11T03:12:33.257Z,101794.00
2018-09-11T03:14:36.256Z,101793.00
2018-09-11T03:16:39.254Z,101798.00
2018-09-11T03:18:42.455Z,101799.00
2018-09-11T03:20:45.449Z,101799.00
2018-09-11T03:22:50.113Z,101800.00
2018-09-11T03:24:53.511Z,101806.00
2018-09-11T03:26:56.497Z,101802.00
2018-09-11T03:28:59.478Z,101799.00
2018-09-11T03:31:02.525Z,101799.00
2018-09-11T03:33:05.589Z,101797.00
2018-09-11T03:35:08.673Z,101798.00
2018-09-11T03:37:11.739Z,101794.00
2018-09-11T03:39:14.782Z,101794.00
2018-09-11T03:41:19.376Z,101796.00
2018-09-11T03:43:22.383Z,101798.00
2018-09-11T03:45:25.427Z,101801.00
2018-09-11T03:47:28.495Z,101800.00
2018-09-11T03:49:31.537Z,101802.00
2018-09-11T03:51:34.546Z,101798.00
2018-09-11T03:53:37.587Z,101800.00
2018-09-11T03:55:40.644Z,101797.00
2018-09-11T03:57:43.846Z,101802.00
2018-09-11T03:59:46.875Z,101805.00
2018-09-11T04:01:51.621Z,101808.00
2018-09-11T04:03:54.743Z,101813.00
2018-09-11T04:05:57.775Z,101811.00
2018-09-11T04:08:00.801Z,101820.00
2018-09-11T04:10:03.921Z,101820.00
2018-09-11T04:12:06.964Z,101817.00
2018-09-11T04:14:10.037Z,101820.00
2018-09-11T04:16:13.086Z,101818.00
2018-09-11T04:18:16.174Z,101818.00
2018-09-11T04:20:20.529Z,101823.00
2018-09-11T04:22:23.591Z,101829.00
2018-09-11T04:24:26.616Z,101829.00
2018-09-11T04:26:29.815Z,101831.00
2018-09-11T04:28:32.914Z,101833.00
2018-09-11T04:30:35.924Z,101830.00
2018-09-11T04:32:39.003Z,101836.00
2018-09-11T04:34:42.033Z,101836.00
2018-09-11T04:36:45.085Z,101836.00
2018-09-11T04:38:49.671Z,101839.00
2018-09-11T04:40:53.024Z,101837.00
2018-09-11T04:42:56.188Z,101834.00
2018-09-11T04:44:59.211Z,101833.00
2018-09-11T04:47:02.258Z,101830.00
2018-09-11T04:49:05.342Z,101828.00
2018-09-11T04:51:08.327Z,101829.00
2018-09-11T04:53:11.374Z,101827.00
2018-09-11T04:55:14.398Z,101825.00
2018-09-11T04:57:17.403Z,101819.00
2018-09-11T04:59:21.696Z,101812.00
2018-09-11T05:01:24.762Z,101813.00
2018-09-11T05:03:27.787Z,101810.00
2018-09-11T05:05:30.933Z,101810.00
2018-09-11T05:07:33.903Z,101808.00
2018-09-11T05:09:36.946Z,101810.00
2018-09-11T05:11:40.062Z,101806.00
2018-09-11T05:13:43.032Z,101804.00
2018-09-11T05:15:45.998Z,101805.00
2018-09-11T05:17:51.871Z,101796.00
2018-09-11T05:19:54.971Z,101794.00
2018-09-11T05:21:57.933Z,101792.00
2018-09-11T05:24:01.316Z,101792.00
2018-09-11T05:26:04.311Z,101792.00
2018-09-11T05:28:07.325Z,101791.00
2018-09-11T05:30:10.376Z,101793.00
2018-09-11T05:32:13.411Z,101789.00
2018-09-11T05:34:16.483Z,101792.00
2018-09-11T05:36:20.740Z,101791.00
2018-09-11T05:38:23.710Z,101786.00
2018-09-11T05:40:26.738Z,101788.00
2018-09-11T05:42:30.009Z,101786.00
2018-09-11T05:44:33.153Z,101793.00
2018-09-11T05:46:36.134Z,101799.00
2018-09-11T05:48:39.175Z,101796.00
2018-09-11T05:50:42.200Z,101795.00
2018-09-11T05:52:45.368Z,101791.00
2018-09-11T05:54:49.653Z,101796.00
2018-09-11T05:56:52.663Z,101795.00
2018-09-11T05:58:55.699Z,101792.00
2018-09-11T06:00:58.835Z,101792.00
2018-09-11T06:03:01.923Z,101790.00
2018-09-11T06:05:05.235Z,101784.00
2018-09-11T06:07:08.348Z,101787.00
2018-09-11T06:09:12.963Z,101789.00
2018-09-11T06:11:16.016Z,101794.00
2018-09-11T06:13:20.112Z,101799.00
2018-09-11T06:15:23.176Z,101796.00
2018-09-11T06:17:26.287Z,101793.00
2018-09-11T06:19:29.341Z,101789.00
2018-09-11T06:21:32.444Z,101792.00
2018-09-11T06:23:35.480Z,101798.00
2018-09-11T06:25:38.582Z,101792.00
2018-09-11T06:27:41.531Z,101788.00
2018-09-11T06:29:44.563Z,101791.00
2018-09-11T06:31:47.606Z,101784.00
2018-09-11T06:33:51.653Z,101787.00
2018-09-11T06:35:54.680Z,101793.00
2018-09-11T06:37:57.693Z,101784.00
2018-09-11T06:40:00.788Z,101788.00
2018-09-11T06:42:03.858Z,101790.00
2018-09-11T06:44:06.863Z,101784.00
2018-09-11T06:46:10.272Z,101786.00
2018-09-11T06:48:13.271Z,101779.00
2018-09-11T06:50:16.276Z,101771.00
2018-09-11T06:52:20.545Z,101768.00
2018-09-11T06:54:23.579Z,101771.00
2018-09-11T06:56:26.562Z,101773.00
2018-09-11T06:58:29.566Z,101780.00
2018-09-11T07:00:32.619Z,101781.00
2018-09-11T07:02:35.614Z,101782.00
2018-09-11T07:04:38.661Z,101781.00
2018-09-11T07:06:41.658Z,101771.00
2018-09-11T07:08:44.652Z,101767.00
2018-09-11T07:10:47.702Z,101769.00
2018-09-11T07:12:52.084Z,101770.00
2018-09-11T07:14:55.123Z,101768.00
2018-09-11T07:16:58.164Z,101764.00
2018-09-11T07:19:01.136Z,101769.00
2018-09-11T07:21:04.193Z,101761.00
2018-09-11T07:23:07.229Z,101763.00
2018-09-11T07:25:10.600Z,101768.00
2018-09-11T07:27:13.606Z,101765.00
2018-09-11T07:29:16.658Z,101763.00
2018-09-11T07:31:21.645Z,101762.00
2018-09-11T07:33:24.667Z,101761.00
2018-09-11T07:35:27.668Z,101757.00
2018-09-11T07:37:30.699Z,101756.00
2018-09-11T07:39:33.672Z,101755.00
2018-09-11T07:41:36.711Z,101756.00
2018-09-11T07:43:39.758Z,101758.00
2018-09-11T07:45:42.736Z,101752.00
2018-09-11T07:47:45.780Z,101757.00
2018-09-11T07:49:50.650Z,101758.00
2018-09-11T07:51:55.648Z,101757.00
2018-09-11T07:53:58.677Z,101747.00
2018-09-11T07:56:01.671Z,101742.00
2018-09-11T07:58:04.697Z,101733.00
2018-09-11T08:00:07.934Z,101733.00
2018-09-11T08:02:11.014Z,101740.00
2018-09-11T08:04:13.987Z,101731.00
2018-09-11T08:06:17.003Z,101733.00
2018-09-11T08:08:21.751Z,101721.00
2018-09-11T08:10:24.814Z,101725.00
2018-09-11T08:12:27.803Z,101726.00
2018-09-11T08:14:30.902Z,101730.00
2018-09-11T08:16:34.210Z,101729.00
2018-09-11T08:18:37.162Z,101723.00
2018-09-11T08:20:40.191Z,101720.00
2018-09-11T08:22:44.183Z,101717.00
2018-09-11T08:24:53.884Z,101735.00
2018-09-11T08:26:56.845Z,101711.00
2018-09-11T08:28:59.960Z,101709.00
2018-09-11T08:31:02.978Z,101702.00
2018-09-11T08:33:06.010Z,101707.00
2018-09-11T08:35:09.055Z,101705.00
2018-09-11T08:37:12.038Z,101694.00
2018-09-11T08:39:15.111Z,101699.00
2018-09-11T08:41:19.573Z,101700.00
2018-09-11T08:43:22.801Z,101712.00
2018-09-11T08:45:25.924Z,101709.00
2018-09-11T08:47:29.015Z,101702.00
2018-09-11T08:49:32.098Z,101706.00
2018-09-11T08:51:35.127Z,101702.00
2018-09-11T08:53:39.370Z,101697.00
2018-09-11T08:55:42.421Z,101702.00
2018-09-11T08:57:45.410Z,101702.00
2018-09-11T08:59:50.260Z,101682.00
2018-09-11T09:01:53.303Z,101675.00
2018-09-11T09:03:56.295Z,101681.00
2018-09-11T09:05:59.562Z,101668.00
2018-09-11T09:08:02.590Z,101664.00
2018-09-11T09:10:05.715Z,101671.00
2018-09-11T09:12:09.025Z,101671.00
2018-09-11T09:14:11.983Z,101674.00
2018-09-11T09:16:14.987Z,101677.00
2018-09-11T09:18:18.017Z,101683.00
2018-09-11T09:20:22.265Z,101678.00
2018-09-11T09:22:25.295Z,101678.00
2018-09-11T09:24:28.307Z,101669.00
2018-09-11T09:26:31.280Z,101681.00
2018-09-11T09:28:34.270Z,101681.00
2018-09-11T09:30:37.315Z,101680.00
2018-09-11T09:32:40.372Z,101669.00
2018-09-11T09:34:43.375Z,101674.00
2018-09-11T09:36:46.465Z,101657.00
2018-09-11T09:38:50.766Z,101664.00
2018-09-11T09:40:53.799Z,101658.00
2018-09-11T09:42:56.860Z,101653.00
2018-09-11T09:44:59.894Z,101661.00
2018-09-11T09:47:02.944Z,101657.00
2018-09-11T09:49:05.942Z,101649.00
2018-09-11T09:51:08.954Z,101641.00
2018-09-11T09:53:11.979Z,101641.00
2018-09-11T09:55:14.986Z,101636.00
2018-09-11T09:57:18.017Z,101627.00
2018-09-11T09:59:22.041Z,101626.00
2018-09-11T10:01:30.611Z,101635.00
2018-09-11T10:03:33.916Z,101633.00
2018-09-11T10:05:36.918Z,101635.00
2018-09-11T10:07:40.103Z,101630.00
2018-09-11T10:09:43.472Z,101633.00
2018-09-11T10:11:46.446Z,101633.00
2018-09-11T10:13:51.167Z,101633.00
2018-09-11T10:15:54.179Z,101631.00
2018-09-11T10:17:57.164Z,101629.00
2018-09-11T10:20:00.128Z,101635.00
2018-09-11T10:22:03.486Z,101621.00
2018-09-11T10:24:06.490Z,101621.00
2018-09-11T10:26:09.503Z,101616.00
2018-09-11T10:28:12.541Z,101605.00
2018-09-11T10:30:15.554Z,101609.00
2018-09-11T10:32:19.867Z,101614.00
2018-09-11T10:34:23.227Z,101603.00
2018-09-11T10:36:26.193Z,101612.00
2018-09-11T10:38:29.195Z,101613.00
2018-09-11T10:40:32.227Z,101602.00
2018-09-11T10:42:35.234Z,101614.00
2018-09-11T10:44:38.267Z,101609.00
2018-09-11T10:46:41.326Z,101608.00
2018-09-11T10:48:44.398Z,101604.00
2018-09-11T10:50:47.582Z,101603.00
2018-09-11T10:52:51.844Z,101594.00
2018-09-11T10:54:54.837Z,101586.00
2018-09-11T10:56:58.306Z,101595.00
2018-09-11T10:59:01.327Z,101606.00
2018-09-11T11:01:04.411Z,101610.00
2018-09-11T11:03:07.520Z,101616.00
2018-09-11T11:05:10.520Z,101616.00
2018-09-11T11:07:13.719Z,101612.00
2018-09-11T11:09:16.816Z,101613.00
2018-09-11T11:11:21.133Z,101616.00
2018-09-11T11:13:24.180Z,101620.00
2018-09-11T11:15:27.180Z,101599.00
2018-09-11T11:17:30.205Z,101598.00
2018-09-11T11:19:33.215Z,101594.00
2018-09-11T11:21:36.283Z,101600.00
2018-09-11T11:23:39.341Z,101602.00
2018-09-11T11:25:42.522Z,101617.00
2018-09-11T11:27:53.599Z,101601.00
2018-09-11T11:30:12.687Z,101603.00
2018-09-11T11:32:23.065Z,101610.00
2018-09-11T11:34:34.686Z,101610.00
2018-09-11T11:36:44.682Z,101615.00
2018-09-11T11:38:55.655Z,101608.00
2018-09-11T11:41:08.288Z,101599.00
2018-09-11T11:43:19.589Z,101604.00
2018-09-11T11:45:38.197Z,101597.00
2018-09-11T11:47:50.564Z,101589.00
2018-09-11T11:50:00.221Z,101577.00
2018-09-11T11:52:09.389Z,101586.00
2018-09-11T11:54:19.507Z,101588.00
2018-09-11T11:56:22.596Z,101577.00
2018-09-11T11:58:25.655Z,101602.00
2018-09-11T12:00:28.747Z,101583.00
2018-09-11T12:02:31.811Z,101590.00
2018-09-11T12:04:34.831Z,101588.00
2018-09-11T12:06:37.898Z,101581.00
2018-09-11T12:08:40.999Z,101585.00
2018-09-11T12:10:44.048Z,101582.00
2018-09-11T12:12:47.148Z,101571.00
2018-09-11T12:14:51.864Z,101580.00
2018-09-11T12:16:55.004Z,101581.00
2018-09-11T12:18:58.340Z,101567.00
2018-09-11T12:21:01.423Z,101566.00
2018-09-11T12:23:04.535Z,101565.00
2018-09-11T12:25:07.627Z,101571.00
2018-09-11T12:27:10.836Z,101571.00
2018-09-11T12:29:13.891Z,101575.00
2018-09-11T12:31:16.959Z,101574.00
2018-09-11T12:33:21.343Z,101573.00
2018-09-11T12:35:24.391Z,101579.00
2018-09-11T12:37:27.439Z,101575.00
2018-09-11T12:39:30.879Z,101567.00
2018-09-11T12:41:33.910Z,101572.00
2018-09-11T12:43:36.951Z,101570.00
2018-09-11T12:45:40.134Z,101565.00
2018-09-11T12:47:43.643Z,101568.00
2018-09-11T12:49:46.413Z,101567.00
2018-09-11T12:51:50.687Z,101568.00
2018-09-11T12:53:53.735Z,101566.00
2018-09-11T12:55:56.795Z,101560.00
2018-09-11T12:57:59.885Z,101564.00
2018-09-11T13:00:03.186Z,101560.00
2018-09-11T13:02:06.948Z,101552.00
2018-09-11T13:04:09.969Z,101562.00
2018-09-11T13:06:13.032Z,101544.00
2018-09-11T13:08:16.066Z,101547.00
2018-09-11T13:10:19.403Z,101548.00
2018-09-11T13:12:23.192Z,101528.00
2018-09-11T13:14:26.169Z,101530.00
2018-09-11T13:16:29.248Z,101525.00
2018-09-11T13:18:32.268Z,101537.00
2018-09-11T13:20:35.327Z,101534.00
2018-09-11T13:22:38.414Z,101530.00
2018-09-11T13:24:41.635Z,101539.00
2018-09-11T13:26:44.643Z,101539.00
2018-09-11T13:28:47.630Z,101538.00
2018-09-11T13:30:52.566Z,101540.00
2018-09-11T13:32:55.628Z,101551.00
2018-09-11T13:34:58.644Z,101547.00
2018-09-11T13:37:01.596Z,101541.00
2018-09-11T13:39:07.146Z,101534.00
2018-09-11T13:41:10.198Z,101533.00
2018-09-11T13:43:13.181Z,101532.00
2018-09-11T13:45:16.303Z,101527.00
2018-09-11T13:47:20.845Z,101530.00
2018-09-11T13:49:23.994Z,101536.00
2018-09-11T13:51:27.062Z,101525.00
2018-09-11T13:53:30.082Z,101530.00
2018-09-11T13:55:33.102Z,101537.00
2018-09-11T13:57:36.088Z,101535.00
2018-09-11T13:59:39.063Z,101532.00
2018-09-11T14:01:42.087Z,101526.00
2018-09-11T14:03:45.019Z,101528.00
2018-09-11T14:05:49.434Z,101520.00
2018-09-11T14:07:52.588Z,101519.00
2018-09-11T14:09:55.611Z,101521.00
2018-09-11T14:11:58.581Z,101524.00
2018-09-11T14:14:01.595Z,101521.00
2018-09-11T14:17:20.313Z,101521.00
2018-09-11T14:19:23.651Z,101517.00
2018-09-11T14:21:26.660Z,101511.00
2018-09-11T14:23:29.604Z,101500.00
2018-09-11T14:25:32.607Z,101493.00
2018-09-11T14:27:35.642Z,101486.00
2018-09-11T14:29:38.686Z,101484.00
2018-09-11T14:31:41.777Z,101486.00
2018-09-11T14:33:44.771Z,101488.00
2018-09-11T14:35:47.758Z,101490.00
2018-09-11T14:37:52.028Z,101493.00
2018-09-11T14:39:55.102Z,101492.00
2018-09-11T14:41:58.204Z,101484.00
2018-09-11T14:44:01.262Z,101490.00
2018-09-11T14:46:04.371Z,101494.00
2018-09-11T14:48:07.442Z,101496.00
2018-09-11T14:50:11.874Z,101494.00
2018-09-11T14:52:15.943Z,101507.00
2018-09-11T14:54:20.526Z,101505.00
2018-09-11T14:56:23.974Z,101504.00
2018-09-11T14:58:27.049Z,101506.00
2018-09-11T15:00:30.091Z,101499.00
2018-09-11T15:02:33.540Z,101511.00
2018-09-11T15:04:36.650Z,101501.00
2018-09-11T15:06:39.747Z,101509.00
2018-09-11T15:08:42.815Z,101500.00
2018-09-11T15:10:45.908Z,101504.00
2018-09-11T15:12:50.395Z,101500.00
2018-09-11T15:14:53.571Z,101499.00
2018-09-11T15:16:56.600Z,101503.00
2018-09-11T15:18:59.642Z,101498.00
2018-09-11T15:21:03.559Z,101487.00
2018-09-11T15:23:06.787Z,101485.00
2018-09-11T15:25:09.854Z,101481.00
2018-09-11T15:27:12.947Z,101481.00
2018-09-11T15:29:15.974Z,101479.00
2018-09-11T15:31:20.374Z,101478.00
2018-09-11T15:33:23.854Z,101482.00
2018-09-11T15:35:26.887Z,101478.00
2018-09-11T15:37:29.895Z,101483.00
2018-09-11T15:39:32.980Z,101480.00
2018-09-11T15:41:36.014Z,101476.00
2018-09-11T15:43:39.085Z,101474.00
2018-09-11T15:45:42.166Z,101471.00
2018-09-11T15:47:45.532Z,101466.00
2018-09-11T15:49:50.204Z,101469.00
2018-09-11T15:51:53.377Z,101472.00
2018-09-11T15:53:56.413Z,101463.00
2018-09-11T15:55:59.744Z,101458.00
2018-09-11T15:58:02.932Z,101461.00
2018-09-11T16:00:06.346Z,101458.00
2018-09-11T16:02:09.497Z,101453.00
2018-09-11T16:04:12.562Z,101458.00
2018-09-11T16:06:15.651Z,101463.00
2018-09-11T16:08:21.131Z,101463.00
2018-09-11T16:10:24.229Z,101457.00
2018-09-11T16:12:27.249Z,101456.00
2018-09-11T16:14:30.565Z,101461.00
2018-09-11T16:16:33.805Z,101450.00
2018-09-11T16:18:36.799Z,101454.00
2018-09-11T16:20:39.955Z,101459.00
2018-09-11T16:22:42.997Z,101463.00
2018-09-11T16:24:45.968Z,101464.00
2018-09-11T16:26:50.628Z,101458.00
2018-09-11T16:28:53.995Z,101459.00
2018-09-11T16:30:56.990Z,101466.00
2018-09-11T16:33:00.027Z,101467.00
2018-09-11T16:35:03.115Z,101469.00
2018-09-11T16:37:06.133Z,101474.00
2018-09-11T16:39:11.052Z,101475.00
2018-09-11T16:41:14.190Z,101473.00
2018-09-11T16:43:17.246Z,101474.00
2018-09-11T16:45:21.611Z,101473.00
2018-09-11T16:47:24.715Z,101477.00
2018-09-11T16:49:27.765Z,101483.00
2018-09-11T16:51:30.793Z,101479.00
2018-09-11T16:53:33.854Z,101487.00
2018-09-11T16:55:36.938Z,101485.00
2018-09-11T16:57:40.030Z,101486.00
2018-09-11T16:59:43.072Z,101485.00
2018-09-11T17:01:46.285Z,101490.00
2018-09-11T17:03:50.905Z,101491.00
2018-09-11T17:05:53.925Z,101496.00
2018-09-11T17:07:56.964Z,101492.00
2018-09-11T17:10:00.016Z,101493.00
2018-09-11T17:12:03.027Z,101495.00
2018-09-11T17:14:06.315Z,101495.00
2018-09-11T17:16:09.475Z,101493.00
2018-09-11T17:18:12.491Z,101492.00
2018-09-11T17:20:15.629Z,101497.00
2018-09-11T17:22:20.296Z,101497.00
2018-09-11T17:24:23.271Z,101501.00
2018-09-11T17:26:26.462Z,101499.00
2018-09-11T17:28:29.483Z,101498.00
2018-09-11T17:30:32.475Z,101503.00
2018-09-11T17:32:35.518Z,101507.00
2018-09-11T17:34:38.546Z,101512.00
2018-09-11T17:36:41.543Z,101505.00
2018-09-11T17:38:44.620Z,101502.00
2018-09-11T17:40:47.676Z,101501.00
2018-09-11T17:42:52.931Z,101508.00
2018-09-11T17:44:55.895Z,101512.00
2018-09-11T17:46:58.929Z,101517.00
2018-09-11T17:49:02.098Z,101510.00
2018-09-11T17:51:05.091Z,101515.00
2018-09-11T17:53:08.079Z,101516.00
2018-09-11T17:55:11.153Z,101521.00
2018-09-11T17:57:14.123Z,101526.00
2018-09-11T17:59:17.131Z,101530.00
2018-09-11T18:01:21.824Z,101528.00
2018-09-11T18:03:24.849Z,101529.00
2018-09-11T18:05:27.949Z,101528.00
2018-09-11T18:07:31.011Z,101527.00
2018-09-11T18:09:34.011Z,101528.00
2018-09-11T18:11:37.199Z,101529.00
2018-09-11T18:13:40.431Z,101522.00
2018-09-11T18:15:43.601Z,101526.00
2018-09-11T18:17:46.641Z,101524.00
2018-09-11T18:19:51.362Z,101527.00
2018-09-11T18:21:54.522Z,101531.00
2018-09-11T18:23:57.639Z,101527.00
2018-09-11T18:26:00.898Z,101529.00
2018-09-11T18:28:03.984Z,101527.00
2018-09-11T18:30:07.284Z,101524.00
2018-09-11T18:32:10.507Z,101529.00
2018-09-11T18:34:13.521Z,101536.00
2018-09-11T18:36:16.574Z,101532.00
2018-09-11T18:38:21.420Z,101535.00
2018-09-11T18:40:24.516Z,101539.00
2018-09-11T18:42:27.822Z,101541.00
2018-09-11T18:44:30.899Z,101546.00
2018-09-11T18:46:33.877Z,101547.00
2018-09-11T18:48:36.863Z,101552.00
2018-09-11T18:50:39.859Z,101551.00
2018-09-11T18:52:42.855Z,101550.00
2018-09-11T18:54:45.931Z,101553.00
2018-09-11T18:56:50.451Z,101557.00
2018-09-11T18:58:53.453Z,101554.00
2018-09-11T19:00:56.596Z,101560.00
2018-09-11T19:03:00.935Z,101558.00
2018-09-11T19:05:04.000Z,101562.00
2018-09-11T19:07:07.028Z,101563.00
2018-09-11T19:09:11.156Z,101571.00
2018-09-11T19:11:14.153Z,101575.00
2018-09-11T19:13:17.191Z,101574.00
2018-09-11T19:15:22.093Z,101577.00
2018-09-11T19:17:25.083Z,101585.00
2018-09-11T19:19:28.111Z,101584.00
2018-09-11T19:21:31.455Z,101589.00
2018-09-11T19:23:34.451Z,101591.00
2018-09-11T19:25:37.480Z,101594.00
2018-09-11T19:27:40.563Z,101592.00
2018-09-11T19:29:43.599Z,101599.00
2018-09-11T19:31:46.656Z,101604.00
2018-09-11T19:33:51.419Z,101597.00
2018-09-11T19:35:54.427Z,101605.00
2018-09-11T19:37:57.456Z,101603.00
2018-09-11T19:40:00.538Z,101600.00
2018-09-11T19:42:03.557Z,101600.00
2018-09-11T19:44:06.590Z,101601.00
2018-09-11T19:46:09.647Z,101598.00
2018-09-11T19:48:12.726Z,101600.00
2018-09-11T19:50:15.936Z,101600.00
2018-09-11T19:52:20.619Z,101600.00
2018-09-11T19:54:23.673Z,101599.00
2018-09-11T19:56:26.826Z,101600.00
2018-09-11T19:58:29.943Z,101596.00
2018-09-11T20:00:32.988Z,101599.00
2018-09-11T20:02:36.014Z,101605.00
2018-09-11T20:04:39.131Z,101604.00
2018-09-11T20:06:42.179Z,101607.00
2018-09-11T20:08:45.224Z,101607.00
2018-09-11T20:10:49.558Z,101612.00
2018-09-11T20:12:52.685Z,101616.00
2018-09-11T20:14:55.754Z,101617.00
2018-09-11T20:16:58.811Z,101621.00
2018-09-11T20:19:02.132Z,101625.00
2018-09-11T20:21:05.160Z,101619.00
2018-09-11T20:23:08.299Z,101624.00
2018-09-11T20:25:11.485Z,101621.00
2018-09-11T20:27:14.546Z,101622.00
2018-09-11T20:29:17.515Z,101623.00
2018-09-11T20:31:21.935Z,101626.00
2018-09-11T20:33:24.915Z,101605.00
2018-09-11T20:35:27.931Z,101623.00
2018-09-11T20:37:30.999Z,101620.00
2018-09-11T20:39:33.967Z,101619.00
2018-09-11T20:41:37.003Z,101620.00
2018-09-11T20:43:40.025Z,101622.00
2018-09-11T20:45:43.079Z,101627.00
2018-09-11T20:47:46.069Z,101625.00
2018-09-11T20:49:50.380Z,101621.00
2018-09-11T20:51:53.451Z,101618.00
2018-09-11T20:53:56.438Z,101623.00
2018-09-11T20:55:59.456Z,101621.00
2018-09-11T20:58:02.447Z,101625.00
2018-09-11T21:00:05.446Z,101633.00
2018-09-11T21:02:08.674Z,101632.00
2018-09-11T21:04:11.687Z,101632.00
2018-09-11T21:06:14.635Z,101633.00
2018-09-11T21:08:17.624Z,101633.00
2018-09-11T21:10:22.047Z,101633.00
2018-09-11T21:12:25.186Z,101634.00
2018-09-11T21:14:28.138Z,101638.00
2018-09-11T21:16:31.204Z,101636.00
2018-09-11T21:18:34.184Z,101640.00
2018-09-11T21:20:37.160Z,101638.00
2018-09-11T21:22:40.427Z,101634.00
2018-09-11T21:24:43.410Z,101632.00
2018-09-11T21:26:46.377Z,101634.00
2018-09-11T21:28:51.255Z,101632.00
2018-09-11T21:30:54.203Z,101630.00
2018-09-11T21:32:57.243Z,101628.00
2018-09-11T21:35:00.377Z,101627.00
2018-09-11T21:37:03.366Z,101622.00
2018-09-11T21:39:08.679Z,101623.00
2018-09-11T21:41:11.657Z,101628.00
2018-09-11T21:43:14.633Z,101630.00
2018-09-11T21:45:17.610Z,101631.00
2018-09-11T21:47:21.930Z,101631.00
2018-09-11T21:49:24.904Z,101633.00
2018-09-11T21:51:27.899Z,101628.00
2018-09-11T21:53:30.904Z,101633.00
2018-09-11T21:55:33.970Z,101637.00
2018-09-11T21:57:36.987Z,101640.00
2018-09-11T21:59:40.256Z,101641.00
2018-09-11T22:01:50.291Z,101644.00
2018-09-11T22:03:54.078Z,101638.00
2018-09-11T22:05:57.196Z,101636.00
2018-09-11T22:08:00.207Z,101635.00
2018-09-11T22:10:03.759Z,101634.00
2018-09-11T22:12:06.751Z,101637.00
2018-09-11T22:14:10.231Z,101637.00
2018-09-11T22:16:13.282Z,101633.00
2018-09-11T22:18:16.314Z,101637.00
2018-09-11T22:20:20.970Z,101638.00
2018-09-11T22:22:24.180Z,101634.00
2018-09-11T22:24:27.219Z,101631.00
2018-09-11T22:26:30.279Z,101631.00
2018-09-11T22:28:33.417Z,101630.00
2018-09-11T22:30:36.468Z,101631.00
2018-09-11T22:32:39.512Z,101630.00
2018-09-11T22:34:42.488Z,101630.00
2018-09-11T22:36:45.508Z,101634.00
2018-09-11T22:38:50.039Z,101630.00
2018-09-11T22:40:53.023Z,101630.00
2018-09-11T22:42:56.059Z,101634.00
2018-09-11T22:44:59.363Z,101630.00
2018-09-11T22:47:02.416Z,101630.00
2018-09-11T22:49:05.431Z,101637.00
2018-09-11T22:51:08.699Z,101628.00
2018-09-11T22:53:11.699Z,101638.00
2018-09-11T22:55:14.718Z,101635.00
2018-09-11T22:57:17.846Z,101636.00
2018-09-11T22:59:20.859Z,101642.00
2018-09-11T23:01:23.974Z,101637.00
2018-09-11T23:03:26.986Z,101635.00
2018-09-11T23:05:30.047Z,101635.00
2018-09-11T23:07:33.035Z,101636.00
2018-09-11T23:09:36.200Z,101634.00
2018-09-11T23:11:39.222Z,101633.00
2018-09-11T23:13:42.173Z,101630.00
2018-09-11T23:15:45.171Z,101632.00
2018-09-11T23:17:49.452Z,101634.00
2018-09-11T23:19:52.505Z,101633.00
2018-09-11T23:21:55.492Z,101630.00
2018-09-11T23:23:58.428Z,101630.00
2018-09-11T23:26:01.412Z,101632.00
2018-09-11T23:28:04.423Z,101631.00
2018-09-11T23:30:07.432Z,101629.00